sensor_id;sensor_type;location;lat;lon;timestamp;temperature;humidity
31542;DHT22;18152;49.986;8.646;2022-09-06T00:00:38;16.10;99.90
31542;DHT22;18152;49.986;8.646;2022-09-06T00:03:05;16.10;99.90
31542;DHT22;18152;49.986;8.646;2022-09-06T00:05:31;16.10;99.90
31542;DHT22;18152;49.986;8.646;2022-09-06T00:07:58;16.10;99.90
31542;DHT22;18152;49.986;8.646;2022-09-06T00:10:24;16.00;99.90
31542;DHT22;18152;49.986;8.646;2022-09-06T00:12:50;16.00;99.90
31542;DHT22;18152;49.986;8.646;2022-09-06T00:15:16;16.00;99.90
31542;DHT22;18152;49.986;8.646;2022-09-06T00:17:42;16.00;99.90
31542;DHT22;18152;49.986;8.646;2022-09-06T00:20:09;16.00;99.90
31542;DHT22;18152;49.986;8.646;2022-09-06T00:22:36;15.90;99.90
31542;DHT22;18152;49.986;8.646;2022-09-06T00:25:03;15.90;99.90
31542;DHT22;18152;49.986;8.646;2022-09-06T00:27:30;15.90;99.90
31542;DHT22;18152;49.986;8.646;2022-09-06T00:29:56;15.90;99.90
31542;DHT22;18152;49.986;8.646;2022-09-06T00:32:22;15.90;99.90
31542;DHT22;18152;49.986;8.646;2022-09-06T00:34:48;16.00;99.90
31542;DHT22;18152;49.986;8.646;2022-09-06T00:37:13;16.00;99.90
31542;DHT22;18152;49.986;8.646;2022-09-06T00:39:39;16.00;99.90
31542;DHT22;18152;49.986;8.646;2022-09-06T00:42:08;16.00;99.90
31542;DHT22;18152;49.986;8.646;2022-09-06T00:44:34;16.00;99.90
31542;DHT22;18152;49.986;8.646;2022-09-06T00:47:00;16.00;99.90
31542;DHT22;18152;49.986;8.646;2022-09-06T00:49:33;15.90;99.90
31542;DHT22;18152;49.986;8.646;2022-09-06T00:52:08;15.90;99.90
31542;DHT22;18152;49.986;8.646;2022-09-06T00:54:34;16.00;99.90
31542;DHT22;18152;49.986;8.646;2022-09-06T00:57:00;16.00;99.90
31542;DHT22;18152;49.986;8.646;2022-09-06T00:59:28;15.90;99.90
31542;DHT22;18152;49.986;8.646;2022-09-06T01:01:55;16.00;99.90
31542;DHT22;18152;49.986;8.646;2022-09-06T01:04:21;16.00;99.90
31542;DHT22;18152;49.986;8.646;2022-09-06T01:07:04;16.00;99.90
31542;DHT22;18152;49.986;8.646;2022-09-06T01:12:47;16.00;99.90
31542;DHT22;18152;49.986;8.646;2022-09-06T01:28:43;16.00;99.90
31542;DHT22;18152;49.986;8.646;2022-09-06T01:31:22;16.10;99.90
31542;DHT22;18152;49.986;8.646;2022-09-06T01:36:52;16.10;99.90
31542;DHT22;18152;49.986;8.646;2022-09-06T01:39:27;16.10;99.90
31542;DHT22;18152;49.986;8.646;2022-09-06T01:41:55;16.10;99.90
31542;DHT22;18152;49.986;8.646;2022-09-06T01:44:23;16.00;99.90
31542;DHT22;18152;49.986;8.646;2022-09-06T01:46:59;16.10;99.90
31542;DHT22;18152;49.986;8.646;2022-09-06T01:50:01;16.10;99.90
31542;DHT22;18152;49.986;8.646;2022-09-06T01:55:29;16.10;99.90
31542;DHT22;18152;49.986;8.646;2022-09-06T02:03:59;16.80;99.90
31542;DHT22;18152;49.986;8.646;2022-09-06T02:06:33;17.00;99.90
31542;DHT22;18152;49.986;8.646;2022-09-06T02:09:10;17.10;99.90
31542;DHT22;18152;49.986;8.646;2022-09-06T02:11:40;17.10;99.90
31542;DHT22;18152;49.986;8.646;2022-09-06T02:14:11;17.30;99.90
31542;DHT22;18152;49.986;8.646;2022-09-06T02:16:41;17.30;99.90
31542;DHT22;18152;49.986;8.646;2022-09-06T02:19:17;17.30;99.90
31542;DHT22;18152;49.986;8.646;2022-09-06T02:21:46;17.40;99.90
31542;DHT22;18152;49.986;8.646;2022-09-06T02:24:18;17.30;99.90
31542;DHT22;18152;49.986;8.646;2022-09-06T02:26:45;17.40;99.90
31542;DHT22;18152;49.986;8.646;2022-09-06T02:29:12;17.40;99.90
31542;DHT22;18152;49.986;8.646;2022-09-06T02:32:02;17.50;99.90
31542;DHT22;18152;49.986;8.646;2022-09-06T02:34:29;17.50;99.90
31542;DHT22;18152;49.986;8.646;2022-09-06T02:36:55;17.50;99.90
31542;DHT22;18152;49.986;8.646;2022-09-06T02:39:21;17.70;99.90
31542;DHT22;18152;49.986;8.646;2022-09-06T02:41:47;17.70;99.90
31542;DHT22;18152;49.986;8.646;2022-09-06T02:44:13;17.90;99.90
31542;DHT22;18152;49.986;8.646;2022-09-06T02:46:39;18.00;99.90
31542;DHT22;18152;49.986;8.646;2022-09-06T02:49:05;18.00;99.90
31542;DHT22;18152;49.986;8.646;2022-09-06T02:51:35;18.10;99.90
31542;DHT22;18152;49.986;8.646;2022-09-06T02:54:01;18.10;99.90
31542;DHT22;18152;49.986;8.646;2022-09-06T02:56:26;18.20;99.90
31542;DHT22;18152;49.986;8.646;2022-09-06T02:58:52;18.30;99.90
31542;DHT22;18152;49.986;8.646;2022-09-06T03:01:17;18.30;99.90
31542;DHT22;18152;49.986;8.646;2022-09-06T03:03:43;18.40;99.90
31542;DHT22;18152;49.986;8.646;2022-09-06T03:06:09;18.40;99.90
31542;DHT22;18152;49.986;8.646;2022-09-06T03:08:37;18.50;99.90
31542;DHT22;18152;49.986;8.646;2022-09-06T03:11:03;18.50;99.90
31542;DHT22;18152;49.986;8.646;2022-09-06T03:13:29;18.50;99.90
31542;DHT22;18152;49.986;8.646;2022-09-06T03:15:57;18.50;99.90
31542;DHT22;18152;49.986;8.646;2022-09-06T03:18:23;18.40;99.90
31542;DHT22;18152;49.986;8.646;2022-09-06T03:20:50;18.30;99.90
31542;DHT22;18152;49.986;8.646;2022-09-06T03:23:17;18.30;99.90
31542;DHT22;18152;49.986;8.646;2022-09-06T03:25:43;18.20;99.90
31542;DHT22;18152;49.986;8.646;2022-09-06T03:28:09;18.30;99.90
31542;DHT22;18152;49.986;8.646;2022-09-06T03:30:35;18.30;99.90
31542;DHT22;18152;49.986;8.646;2022-09-06T03:33:00;18.40;99.90
31542;DHT22;18152;49.986;8.646;2022-09-06T03:35:26;18.40;99.90
31542;DHT22;18152;49.986;8.646;2022-09-06T03:37:51;18.30;99.90
31542;DHT22;18152;49.986;8.646;2022-09-06T03:40:17;18.30;99.90
31542;DHT22;18152;49.986;8.646;2022-09-06T03:42:43;18.30;99.90
31542;DHT22;18152;49.986;8.646;2022-09-06T03:45:08;18.30;99.90
31542;DHT22;18152;49.986;8.646;2022-09-06T03:47:34;18.20;99.90
31542;DHT22;18152;49.986;8.646;2022-09-06T03:50:00;18.40;99.90
31542;DHT22;18152;49.986;8.646;2022-09-06T03:52:25;18.40;99.90
31542;DHT22;18152;49.986;8.646;2022-09-06T03:54:51;18.40;99.90
31542;DHT22;18152;49.986;8.646;2022-09-06T03:57:16;18.40;99.90
31542;DHT22;18152;49.986;8.646;2022-09-06T03:59:42;18.40;99.90
31542;DHT22;18152;49.986;8.646;2022-09-06T04:02:08;18.30;99.90
31542;DHT22;18152;49.986;8.646;2022-09-06T04:04:33;18.30;99.90
31542;DHT22;18152;49.986;8.646;2022-09-06T04:06:59;18.30;99.90
31542;DHT22;18152;49.986;8.646;2022-09-06T04:09:24;18.30;99.90
31542;DHT22;18152;49.986;8.646;2022-09-06T04:11:50;18.30;99.90
31542;DHT22;18152;49.986;8.646;2022-09-06T04:14:16;18.40;99.90
31542;DHT22;18152;49.986;8.646;2022-09-06T04:16:41;18.50;99.90
31542;DHT22;18152;49.986;8.646;2022-09-06T04:19:07;18.50;99.90
31542;DHT22;18152;49.986;8.646;2022-09-06T04:21:32;18.50;99.90
31542;DHT22;18152;49.986;8.646;2022-09-06T04:23:58;18.50;99.90
31542;DHT22;18152;49.986;8.646;2022-09-06T04:26:24;18.50;99.90
31542;DHT22;18152;49.986;8.646;2022-09-06T04:28:49;18.50;99.90
31542;DHT22;18152;49.986;8.646;2022-09-06T04:31:15;18.50;99.90
31542;DHT22;18152;49.986;8.646;2022-09-06T04:33:41;18.40;99.90
31542;DHT22;18152;49.986;8.646;2022-09-06T04:36:08;18.50;99.90
31542;DHT22;18152;49.986;8.646;2022-09-06T04:38:39;18.40;99.90
31542;DHT22;18152;49.986;8.646;2022-09-06T04:41:05;18.40;99.90
31542;DHT22;18152;49.986;8.646;2022-09-06T04:43:31;18.40;99.90
31542;DHT22;18152;49.986;8.646;2022-09-06T04:46:10;18.30;99.90
31542;DHT22;18152;49.986;8.646;2022-09-06T04:48:40;18.20;99.90
31542;DHT22;18152;49.986;8.646;2022-09-06T04:51:05;18.20;99.90
31542;DHT22;18152;49.986;8.646;2022-09-06T04:53:31;18.10;99.90
31542;DHT22;18152;49.986;8.646;2022-09-06T04:55:57;18.10;99.90
31542;DHT22;18152;49.986;8.646;2022-09-06T04:58:23;18.10;99.90
31542;DHT22;18152;49.986;8.646;2022-09-06T05:00:49;18.10;99.90
31542;DHT22;18152;49.986;8.646;2022-09-06T05:03:15;18.00;99.90
31542;DHT22;18152;49.986;8.646;2022-09-06T05:05:41;18.00;99.90
31542;DHT22;18152;49.986;8.646;2022-09-06T05:08:06;18.00;99.90
31542;DHT22;18152;49.986;8.646;2022-09-06T05:10:32;17.90;99.90
31542;DHT22;18152;49.986;8.646;2022-09-06T05:12:58;17.80;99.90
31542;DHT22;18152;49.986;8.646;2022-09-06T05:15:23;17.70;99.90
31542;DHT22;18152;49.986;8.646;2022-09-06T05:17:49;17.50;99.90
31542;DHT22;18152;49.986;8.646;2022-09-06T05:20:15;17.50;99.90
31542;DHT22;18152;49.986;8.646;2022-09-06T05:22:41;17.40;99.90
31542;DHT22;18152;49.986;8.646;2022-09-06T05:25:07;17.40;99.90
31542;DHT22;18152;49.986;8.646;2022-09-06T05:27:33;17.40;99.90
31542;DHT22;18152;49.986;8.646;2022-09-06T05:29:59;17.30;99.90
31542;DHT22;18152;49.986;8.646;2022-09-06T05:32:24;17.20;99.90
31542;DHT22;18152;49.986;8.646;2022-09-06T05:34:50;17.10;99.90
31542;DHT22;18152;49.986;8.646;2022-09-06T05:37:15;17.10;99.90
31542;DHT22;18152;49.986;8.646;2022-09-06T05:39:41;17.00;99.90
31542;DHT22;18152;49.986;8.646;2022-09-06T05:42:07;17.10;99.90
31542;DHT22;18152;49.986;8.646;2022-09-06T05:44:33;17.00;99.90
31542;DHT22;18152;49.986;8.646;2022-09-06T05:46:58;17.10;99.90
31542;DHT22;18152;49.986;8.646;2022-09-06T05:49:24;17.10;99.90
31542;DHT22;18152;49.986;8.646;2022-09-06T05:51:50;17.20;99.90
31542;DHT22;18152;49.986;8.646;2022-09-06T05:54:16;17.10;99.90
31542;DHT22;18152;49.986;8.646;2022-09-06T05:56:42;17.20;99.90
31542;DHT22;18152;49.986;8.646;2022-09-06T05:59:07;17.20;99.90
31542;DHT22;18152;49.986;8.646;2022-09-06T06:01:33;17.30;99.90
31542;DHT22;18152;49.986;8.646;2022-09-06T06:04:01;17.30;99.90
31542;DHT22;18152;49.986;8.646;2022-09-06T06:06:28;17.40;99.90
31542;DHT22;18152;49.986;8.646;2022-09-06T06:08:54;17.50;99.90
31542;DHT22;18152;49.986;8.646;2022-09-06T06:11:21;17.50;99.90
31542;DHT22;18152;49.986;8.646;2022-09-06T06:13:46;17.50;99.90
31542;DHT22;18152;49.986;8.646;2022-09-06T06:16:14;17.50;99.90
31542;DHT22;18152;49.986;8.646;2022-09-06T06:18:40;17.50;99.90
31542;DHT22;18152;49.986;8.646;2022-09-06T06:21:15;17.60;99.90
31542;DHT22;18152;49.986;8.646;2022-09-06T06:23:43;17.60;99.90
31542;DHT22;18152;49.986;8.646;2022-09-06T06:26:10;17.70;99.90
31542;DHT22;18152;49.986;8.646;2022-09-06T06:28:37;17.90;99.90
31542;DHT22;18152;49.986;8.646;2022-09-06T06:31:04;18.00;99.90
31542;DHT22;18152;49.986;8.646;2022-09-06T06:33:30;18.20;99.90
31542;DHT22;18152;49.986;8.646;2022-09-06T06:36:00;18.40;99.90
31542;DHT22;18152;49.986;8.646;2022-09-06T06:38:37;18.60;99.90
31542;DHT22;18152;49.986;8.646;2022-09-06T06:41:04;18.90;99.90
31542;DHT22;18152;49.986;8.646;2022-09-06T06:43:30;19.20;99.90
31542;DHT22;18152;49.986;8.646;2022-09-06T06:46:05;19.50;99.90
31542;DHT22;18152;49.986;8.646;2022-09-06T06:48:31;19.80;99.90
31542;DHT22;18152;49.986;8.646;2022-09-06T06:50:57;19.90;99.90
31542;DHT22;18152;49.986;8.646;2022-09-06T06:53:23;20.10;99.90
31542;DHT22;18152;49.986;8.646;2022-09-06T06:55:48;20.10;99.90
31542;DHT22;18152;49.986;8.646;2022-09-06T06:58:17;20.30;99.90
31542;DHT22;18152;49.986;8.646;2022-09-06T07:00:43;20.40;99.90
31542;DHT22;18152;49.986;8.646;2022-09-06T07:03:10;20.50;99.90
31542;DHT22;18152;49.986;8.646;2022-09-06T07:05:37;20.50;99.90
31542;DHT22;18152;49.986;8.646;2022-09-06T07:08:03;20.50;99.90
31542;DHT22;18152;49.986;8.646;2022-09-06T07:10:29;20.50;99.90
31542;DHT22;18152;49.986;8.646;2022-09-06T07:12:55;20.40;99.90
31542;DHT22;18152;49.986;8.646;2022-09-06T07:15:21;20.40;99.90
31542;DHT22;18152;49.986;8.646;2022-09-06T07:17:46;20.40;99.90
31542;DHT22;18152;49.986;8.646;2022-09-06T07:20:12;20.70;99.90
31542;DHT22;18152;49.986;8.646;2022-09-06T07:22:38;20.80;99.90
31542;DHT22;18152;49.986;8.646;2022-09-06T07:25:05;20.90;99.90
31542;DHT22;18152;49.986;8.646;2022-09-06T07:27:31;21.00;99.90
31542;DHT22;18152;49.986;8.646;2022-09-06T07:29:57;21.10;99.90
31542;DHT22;18152;49.986;8.646;2022-09-06T07:32:22;21.20;99.90
31542;DHT22;18152;49.986;8.646;2022-09-06T07:34:48;21.20;99.90
31542;DHT22;18152;49.986;8.646;2022-09-06T07:37:14;21.30;99.90
31542;DHT22;18152;49.986;8.646;2022-09-06T07:39:39;21.10;99.90
31542;DHT22;18152;49.986;8.646;2022-09-06T07:42:06;21.00;99.90
31542;DHT22;18152;49.986;8.646;2022-09-06T07:44:31;20.90;99.90
31542;DHT22;18152;49.986;8.646;2022-09-06T07:46:57;20.90;99.90
31542;DHT22;18152;49.986;8.646;2022-09-06T07:49:22;20.90;99.90
31542;DHT22;18152;49.986;8.646;2022-09-06T07:51:48;20.90;99.90
31542;DHT22;18152;49.986;8.646;2022-09-06T07:54:14;20.90;99.90
31542;DHT22;18152;49.986;8.646;2022-09-06T07:56:39;20.80;99.90
31542;DHT22;18152;49.986;8.646;2022-09-06T07:59:05;20.90;99.90
31542;DHT22;18152;49.986;8.646;2022-09-06T08:01:38;20.70;99.90
31542;DHT22;18152;49.986;8.646;2022-09-06T08:04:13;20.60;99.90
31542;DHT22;18152;49.986;8.646;2022-09-06T08:06:48;20.60;99.90
31542;DHT22;18152;49.986;8.646;2022-09-06T08:09:15;20.70;99.90
31542;DHT22;18152;49.986;8.646;2022-09-06T08:11:40;21.00;99.90
31542;DHT22;18152;49.986;8.646;2022-09-06T08:14:07;21.20;99.90
31542;DHT22;18152;49.986;8.646;2022-09-06T08:16:35;21.20;99.90
31542;DHT22;18152;49.986;8.646;2022-09-06T08:19:04;21.30;99.90
31542;DHT22;18152;49.986;8.646;2022-09-06T08:21:33;21.30;99.90
31542;DHT22;18152;49.986;8.646;2022-09-06T08:24:02;21.40;99.90
31542;DHT22;18152;49.986;8.646;2022-09-06T08:26:29;21.50;99.90
31542;DHT22;18152;49.986;8.646;2022-09-06T08:28:56;21.50;99.90
31542;DHT22;18152;49.986;8.646;2022-09-06T08:31:24;21.80;99.90
31542;DHT22;18152;49.986;8.646;2022-09-06T08:33:51;21.90;99.90
31542;DHT22;18152;49.986;8.646;2022-09-06T08:36:16;22.50;99.90
31542;DHT22;18152;49.986;8.646;2022-09-06T08:38:42;22.90;99.90
31542;DHT22;18152;49.986;8.646;2022-09-06T08:41:16;23.20;99.90
31542;DHT22;18152;49.986;8.646;2022-09-06T08:46:31;23.80;99.90
31542;DHT22;18152;49.986;8.646;2022-09-06T08:48:58;24.00;99.90
31542;DHT22;18152;49.986;8.646;2022-09-06T08:54:14;24.20;99.90
31542;DHT22;18152;49.986;8.646;2022-09-06T08:57:03;24.40;99.90
31542;DHT22;18152;49.986;8.646;2022-09-06T08:59:38;24.90;99.90
31542;DHT22;18152;49.986;8.646;2022-09-06T09:02:19;25.10;99.90
31542;DHT22;18152;49.986;8.646;2022-09-06T09:04:55;25.20;99.90
31542;DHT22;18152;49.986;8.646;2022-09-06T09:07:44;25.60;99.90
31542;DHT22;18152;49.986;8.646;2022-09-06T09:10:41;25.40;99.90
31542;DHT22;18152;49.986;8.646;2022-09-06T09:13:11;25.50;99.70
31542;DHT22;18152;49.986;8.646;2022-09-06T09:15:40;25.80;98.90
31542;DHT22;18152;49.986;8.646;2022-09-06T09:18:06;26.10;99.90
31542;DHT22;18152;49.986;8.646;2022-09-06T09:20:32;26.10;99.90
31542;DHT22;18152;49.986;8.646;2022-09-06T09:22:58;26.30;99.90
31542;DHT22;18152;49.986;8.646;2022-09-06T09:25:23;26.40;98.60
31542;DHT22;18152;49.986;8.646;2022-09-06T09:27:52;26.50;96.30
31542;DHT22;18152;49.986;8.646;2022-09-06T09:30:24;26.50;96.30
31542;DHT22;18152;49.986;8.646;2022-09-06T09:32:52;26.70;96.50
31542;DHT22;18152;49.986;8.646;2022-09-06T09:35:36;26.80;97.40
31542;DHT22;18152;49.986;8.646;2022-09-06T09:38:08;26.80;97.20
31542;DHT22;18152;49.986;8.646;2022-09-06T09:40:39;27.30;94.60
31542;DHT22;18152;49.986;8.646;2022-09-06T09:43:18;27.20;95.00
31542;DHT22;18152;49.986;8.646;2022-09-06T09:45:45;27.00;98.60
31542;DHT22;18152;49.986;8.646;2022-09-06T09:48:24;27.10;94.20
31542;DHT22;18152;49.986;8.646;2022-09-06T09:50:51;27.10;97.20
31542;DHT22;18152;49.986;8.646;2022-09-06T09:53:19;27.30;94.40
31542;DHT22;18152;49.986;8.646;2022-09-06T09:55:47;27.40;95.50
31542;DHT22;18152;49.986;8.646;2022-09-06T09:58:28;27.50;95.50
31542;DHT22;18152;49.986;8.646;2022-09-06T10:01:28;27.50;96.00
31542;DHT22;18152;49.986;8.646;2022-09-06T10:04:03;27.60;96.20
31542;DHT22;18152;49.986;8.646;2022-09-06T10:06:30;27.50;91.80
31542;DHT22;18152;49.986;8.646;2022-09-06T10:08:56;27.50;93.50
31542;DHT22;18152;49.986;8.646;2022-09-06T10:11:50;27.60;96.10
31542;DHT22;18152;49.986;8.646;2022-09-06T10:14:25;27.80;93.50
31542;DHT22;18152;49.986;8.646;2022-09-06T10:16:51;28.10;91.30
31542;DHT22;18152;49.986;8.646;2022-09-06T10:19:41;27.80;91.30
31542;DHT22;18152;49.986;8.646;2022-09-06T10:27:32;28.10;92.00
31542;DHT22;18152;49.986;8.646;2022-09-06T10:30:05;27.90;91.40
31542;DHT22;18152;49.986;8.646;2022-09-06T10:32:55;27.90;93.60
31542;DHT22;18152;49.986;8.646;2022-09-06T10:35:35;27.60;91.40
31542;DHT22;18152;49.986;8.646;2022-09-06T10:38:23;28.00;95.10
31542;DHT22;18152;49.986;8.646;2022-09-06T10:41:31;28.10;91.70
31542;DHT22;18152;49.986;8.646;2022-09-06T10:46:46;28.30;95.20
31542;DHT22;18152;49.986;8.646;2022-09-06T10:49:17;28.10;91.10
31542;DHT22;18152;49.986;8.646;2022-09-06T10:51:56;28.50;91.20
31542;DHT22;18152;49.986;8.646;2022-09-06T10:54:23;28.60;93.50
31542;DHT22;18152;49.986;8.646;2022-09-06T10:56:59;28.20;90.40
31542;DHT22;18152;49.986;8.646;2022-09-06T11:00:04;28.50;87.30
31542;DHT22;18152;49.986;8.646;2022-09-06T11:05:53;28.80;84.40
31542;DHT22;18152;49.986;8.646;2022-09-06T11:08:42;28.80;87.70
31542;DHT22;18152;49.986;8.646;2022-09-06T11:11:21;28.40;87.80
31542;DHT22;18152;49.986;8.646;2022-09-06T11:13:48;28.40;90.80
31542;DHT22;18152;49.986;8.646;2022-09-06T11:16:27;28.20;91.00
31542;DHT22;18152;49.986;8.646;2022-09-06T11:19:02;28.40;91.80
31542;DHT22;18152;49.986;8.646;2022-09-06T11:29:55;28.80;80.90
31542;DHT22;18152;49.986;8.646;2022-09-06T11:32:40;28.80;90.10
31542;DHT22;18152;49.986;8.646;2022-09-06T11:35:31;28.70;84.00
31542;DHT22;18152;49.986;8.646;2022-09-06T11:40:34;28.80;87.00
31542;DHT22;18152;49.986;8.646;2022-09-06T11:45:44;29.10;80.30
31542;DHT22;18152;49.986;8.646;2022-09-06T11:53:34;29.20;88.70
31542;DHT22;18152;49.986;8.646;2022-09-06T11:56:29;29.30;85.50
31542;DHT22;18152;49.986;8.646;2022-09-06T11:59:02;29.30;91.00
31542;DHT22;18152;49.986;8.646;2022-09-06T12:06:23;29.10;82.10
31542;DHT22;18152;49.986;8.646;2022-09-06T12:08:51;29.20;76.80
31542;DHT22;18152;49.986;8.646;2022-09-06T12:19:47;29.60;85.90
31542;DHT22;18152;49.986;8.646;2022-09-06T12:24:54;29.60;85.40
31542;DHT22;18152;49.986;8.646;2022-09-06T12:27:38;29.80;80.50
31542;DHT22;18152;49.986;8.646;2022-09-06T12:30:42;29.30;76.60
31542;DHT22;18152;49.986;8.646;2022-09-06T12:35:42;29.30;88.10
31542;DHT22;18152;49.986;8.646;2022-09-06T12:38:13;29.60;82.00
31542;DHT22;18152;49.986;8.646;2022-09-06T12:40:47;29.60;75.80
31542;DHT22;18152;49.986;8.646;2022-09-06T12:43:16;29.60;74.00
31542;DHT22;18152;49.986;8.646;2022-09-06T12:45:48;29.70;74.90
31542;DHT22;18152;49.986;8.646;2022-09-06T12:48:30;29.80;82.60
31542;DHT22;18152;49.986;8.646;2022-09-06T12:51:08;29.50;83.20
31542;DHT22;18152;49.986;8.646;2022-09-06T12:53:52;29.40;78.60
31542;DHT22;18152;49.986;8.646;2022-09-06T12:56:20;29.40;80.40
31542;DHT22;18152;49.986;8.646;2022-09-06T12:58:46;29.40;80.40
31542;DHT22;18152;49.986;8.646;2022-09-06T13:01:25;29.30;84.40
31542;DHT22;18152;49.986;8.646;2022-09-06T14:32:06;28.20;72.50
31542;DHT22;18152;49.986;8.646;2022-09-06T14:34:32;27.50;82.30
31542;DHT22;18152;49.986;8.646;2022-09-06T14:40:10;27.30;81.40
31542;DHT22;18152;49.986;8.646;2022-09-06T14:42:35;26.90;83.40
31542;DHT22;18152;49.986;8.646;2022-09-06T14:45:01;26.80;84.70
31542;DHT22;18152;49.986;8.646;2022-09-06T14:47:26;26.40;90.80
31542;DHT22;18152;49.986;8.646;2022-09-06T14:49:52;26.10;76.40
31542;DHT22;18152;49.986;8.646;2022-09-06T14:52:18;26.10;85.00
31542;DHT22;18152;49.986;8.646;2022-09-06T14:54:44;25.90;85.40
31542;DHT22;18152;49.986;8.646;2022-09-06T14:57:09;26.20;77.40
31542;DHT22;18152;49.986;8.646;2022-09-06T14:59:35;26.30;80.70
31542;DHT22;18152;49.986;8.646;2022-09-06T15:02:01;26.30;76.50
31542;DHT22;18152;49.986;8.646;2022-09-06T15:04:26;26.60;74.10
31542;DHT22;18152;49.986;8.646;2022-09-06T15:06:52;27.10;73.50
31542;DHT22;18152;49.986;8.646;2022-09-06T15:09:18;26.90;77.50
31542;DHT22;18152;49.986;8.646;2022-09-06T15:11:44;26.90;72.90
31542;DHT22;18152;49.986;8.646;2022-09-06T15:14:15;27.00;72.70
31542;DHT22;18152;49.986;8.646;2022-09-06T15:16:43;26.60;79.70
31542;DHT22;18152;49.986;8.646;2022-09-06T15:19:09;26.80;72.80
31542;DHT22;18152;49.986;8.646;2022-09-06T15:21:34;26.70;73.40
31542;DHT22;18152;49.986;8.646;2022-09-06T15:24:01;26.50;75.20
31542;DHT22;18152;49.986;8.646;2022-09-06T15:26:28;26.40;74.00
31542;DHT22;18152;49.986;8.646;2022-09-06T15:28:53;26.30;75.50
31542;DHT22;18152;49.986;8.646;2022-09-06T15:31:20;25.80;82.60
31542;DHT22;18152;49.986;8.646;2022-09-06T15:33:45;25.90;74.40
31542;DHT22;18152;49.986;8.646;2022-09-06T15:36:13;25.90;79.40
31542;DHT22;18152;49.986;8.646;2022-09-06T15:38:41;25.60;83.00
31542;DHT22;18152;49.986;8.646;2022-09-06T15:41:16;25.60;79.80
31542;DHT22;18152;49.986;8.646;2022-09-06T15:43:44;25.70;78.50
31542;DHT22;18152;49.986;8.646;2022-09-06T15:46:15;25.60;85.60
31542;DHT22;18152;49.986;8.646;2022-09-06T15:48:43;25.40;80.50
31542;DHT22;18152;49.986;8.646;2022-09-06T15:51:11;25.40;83.30
31542;DHT22;18152;49.986;8.646;2022-09-06T15:53:38;25.40;83.10
31542;DHT22;18152;49.986;8.646;2022-09-06T15:56:05;25.10;90.40
31542;DHT22;18152;49.986;8.646;2022-09-06T15:58:32;25.10;84.00
31542;DHT22;18152;49.986;8.646;2022-09-06T16:01:19;25.00;89.40
31542;DHT22;18152;49.986;8.646;2022-09-06T16:03:47;24.80;91.80
31542;DHT22;18152;49.986;8.646;2022-09-06T16:06:18;24.70;92.70
31542;DHT22;18152;49.986;8.646;2022-09-06T16:08:44;24.60;93.60
31542;DHT22;18152;49.986;8.646;2022-09-06T16:11:12;24.40;95.50
31542;DHT22;18152;49.986;8.646;2022-09-06T16:13:39;24.30;96.80
31542;DHT22;18152;49.986;8.646;2022-09-06T16:16:07;24.20;99.00
31542;DHT22;18152;49.986;8.646;2022-09-06T16:18:35;24.10;99.60
31542;DHT22;18152;49.986;8.646;2022-09-06T16:21:12;23.90;99.90
31542;DHT22;18152;49.986;8.646;2022-09-06T16:23:39;23.90;99.90
31542;DHT22;18152;49.986;8.646;2022-09-06T16:26:07;23.80;99.90
31542;DHT22;18152;49.986;8.646;2022-09-06T16:28:34;23.70;99.90
31542;DHT22;18152;49.986;8.646;2022-09-06T16:31:01;23.70;99.90
31542;DHT22;18152;49.986;8.646;2022-09-06T16:33:28;23.60;99.90
31542;DHT22;18152;49.986;8.646;2022-09-06T16:35:54;23.60;99.90
31542;DHT22;18152;49.986;8.646;2022-09-06T16:38:19;23.30;99.90
31542;DHT22;18152;49.986;8.646;2022-09-06T16:40:45;23.00;99.90
31542;DHT22;18152;49.986;8.646;2022-09-06T16:43:12;22.70;99.90
31542;DHT22;18152;49.986;8.646;2022-09-06T16:45:38;22.50;99.90
31542;DHT22;18152;49.986;8.646;2022-09-06T16:48:04;22.30;99.90
31542;DHT22;18152;49.986;8.646;2022-09-06T16:50:31;22.10;99.90
31542;DHT22;18152;49.986;8.646;2022-09-06T16:52:57;22.00;99.90
31542;DHT22;18152;49.986;8.646;2022-09-06T16:55:23;21.90;99.90
31542;DHT22;18152;49.986;8.646;2022-09-06T16:57:48;21.70;99.90
31542;DHT22;18152;49.986;8.646;2022-09-06T17:00:14;21.60;99.90
31542;DHT22;18152;49.986;8.646;2022-09-06T17:02:44;21.50;99.90
31542;DHT22;18152;49.986;8.646;2022-09-06T17:05:12;21.30;99.90
31542;DHT22;18152;49.986;8.646;2022-09-06T17:07:39;21.10;99.90
31542;DHT22;18152;49.986;8.646;2022-09-06T17:10:05;21.00;99.90
31542;DHT22;18152;49.986;8.646;2022-09-06T17:12:31;21.00;99.90
31542;DHT22;18152;49.986;8.646;2022-09-06T17:14:57;21.00;99.90
31542;DHT22;18152;49.986;8.646;2022-09-06T17:17:23;20.90;99.90
31542;DHT22;18152;49.986;8.646;2022-09-06T17:19:48;20.90;99.90
31542;DHT22;18152;49.986;8.646;2022-09-06T17:22:15;20.80;99.90
31542;DHT22;18152;49.986;8.646;2022-09-06T17:24:40;20.80;99.90
31542;DHT22;18152;49.986;8.646;2022-09-06T17:27:06;20.70;99.90
31542;DHT22;18152;49.986;8.646;2022-09-06T17:29:32;20.60;99.90
31542;DHT22;18152;49.986;8.646;2022-09-06T17:31:58;20.50;99.90
31542;DHT22;18152;49.986;8.646;2022-09-06T17:34:25;20.50;99.90
31542;DHT22;18152;49.986;8.646;2022-09-06T17:36:51;20.60;99.90
31542;DHT22;18152;49.986;8.646;2022-09-06T17:39:18;20.40;99.90
31542;DHT22;18152;49.986;8.646;2022-09-06T17:41:48;20.30;99.90
31542;DHT22;18152;49.986;8.646;2022-09-06T17:44:16;20.10;99.90
31542;DHT22;18152;49.986;8.646;2022-09-06T17:46:44;20.00;99.90
31542;DHT22;18152;49.986;8.646;2022-09-06T17:49:10;19.90;99.90
31542;DHT22;18152;49.986;8.646;2022-09-06T17:51:36;19.80;99.90
31542;DHT22;18152;49.986;8.646;2022-09-06T17:54:02;19.70;99.90
31542;DHT22;18152;49.986;8.646;2022-09-06T17:56:29;19.70;99.90
31542;DHT22;18152;49.986;8.646;2022-09-06T17:58:57;19.70;99.90
31542;DHT22;18152;49.986;8.646;2022-09-06T18:01:28;19.60;99.90
31542;DHT22;18152;49.986;8.646;2022-09-06T18:03:58;19.60;99.90
31542;DHT22;18152;49.986;8.646;2022-09-06T18:06:26;19.40;99.90
31542;DHT22;18152;49.986;8.646;2022-09-06T18:08:53;19.40;99.90
31542;DHT22;18152;49.986;8.646;2022-09-06T18:11:24;19.30;99.90
31542;DHT22;18152;49.986;8.646;2022-09-06T18:13:56;19.30;99.90
31542;DHT22;18152;49.986;8.646;2022-09-06T18:16:22;19.20;99.90
31542;DHT22;18152;49.986;8.646;2022-09-06T18:18:52;19.10;99.90
31542;DHT22;18152;49.986;8.646;2022-09-06T18:21:18;19.00;99.90
31542;DHT22;18152;49.986;8.646;2022-09-06T18:23:44;18.90;99.90
31542;DHT22;18152;49.986;8.646;2022-09-06T18:26:10;18.90;99.90
31542;DHT22;18152;49.986;8.646;2022-09-06T18:28:37;18.80;99.90
31542;DHT22;18152;49.986;8.646;2022-09-06T18:31:05;18.80;99.90
31542;DHT22;18152;49.986;8.646;2022-09-06T18:33:31;18.80;99.90
31542;DHT22;18152;49.986;8.646;2022-09-06T18:35:57;18.80;99.90